sensor_id;sensor_type;location;lat;lon;timestamp;pressure;altitude;pressure_sealevel;temperature;humidity
75549;BME280;64133;56.002;37.208;2023-04-06T00:03:00;99804.78;;;2.20;85.26
75549;BME280;64133;56.002;37.208;2023-04-06T00:08:05;99795.30;;;2.19;85.27
75549;BME280;64133;56.002;37.208;2023-04-06T00:13:10;99794.38;;;2.10;85.33
75549;BME280;64133;56.002;37.208;2023-04-06T00:18:15;99798.39;;;2.07;85.43
75549;BME280;64133;56.002;37.208;2023-04-06T00:23:19;99798.95;;;2.04;85.38
75549;BME280;64133;56.002;37.208;2023-04-06T00:28:24;99799.98;;;1.99;85.49
75549;BME280;64133;56.002;37.208;2023-04-06T00:33:29;99800.17;;;1.95;85.54
75549;BME280;64133;56.002;37.208;2023-04-06T00:38:34;99792.91;;;1.93;85.60
75549;BME280;64133;56.002;37.208;2023-04-06T00:43:39;99809.13;;;1.88;85.56
75549;BME280;64133;56.002;37.208;2023-04-06T00:48:43;99799.34;;;1.83;85.69
75549;BME280;64133;56.002;37.208;2023-04-06T00:53:48;99801.28;;;1.78;85.84
75549;BME280;64133;56.002;37.208;2023-04-06T00:58:53;99801.35;;;1.76;85.88
75549;BME280;64133;56.002;37.208;2023-04-06T01:03:58;99807.28;;;1.80;85.96
75549;BME280;64133;56.002;37.208;2023-04-06T01:09:02;99795.81;;;1.73;86.00
75549;BME280;64133;56.002;37.208;2023-04-06T01:14:07;99797.56;;;1.73;86.02
75549;BME280;64133;56.002;37.208;2023-04-06T01:19:12;99798.23;;;1.78;86.22
75549;BME280;64133;56.002;37.208;2023-04-06T01:24:17;99800.41;;;1.79;86.12
75549;BME280;64133;56.002;37.208;2023-04-06T01:29:21;99796.89;;;1.80;86.02
75549;BME280;64133;56.002;37.208;2023-04-06T01:34:26;99792.33;;;1.74;86.01
75549;BME280;64133;56.002;37.208;2023-04-06T01:39:31;99786.72;;;1.73;85.98
75549;BME280;64133;56.002;37.208;2023-04-06T01:44:36;99795.15;;;1.68;85.98
75549;BME280;64133;56.002;37.208;2023-04-06T01:49:40;99786.97;;;1.67;85.98
75549;BME280;64133;56.002;37.208;2023-04-06T01:54:45;99790.41;;;1.68;86.09
75549;BME280;64133;56.002;37.208;2023-04-06T01:59:50;99792.91;;;1.71;86.01
75549;BME280;64133;56.002;37.208;2023-04-06T02:04:55;99792.28;;;1.64;86.04
75549;BME280;64133;56.002;37.208;2023-04-06T02:09:59;99790.94;;;1.66;86.04
75549;BME280;64133;56.002;37.208;2023-04-06T02:15:05;99801.64;;;1.68;86.11
75549;BME280;64133;56.002;37.208;2023-04-06T02:20:10;99797.61;;;1.61;85.91
75549;BME280;64133;56.002;37.208;2023-04-06T02:25:15;99806.45;;;1.56;85.91
75549;BME280;64133;56.002;37.208;2023-04-06T02:30:20;99808.14;;;1.57;86.13
75549;BME280;64133;56.002;37.208;2023-04-06T02:35:25;99809.12;;;1.66;86.14
75549;BME280;64133;56.002;37.208;2023-04-06T02:40:30;99809.05;;;1.67;85.89
75549;BME280;64133;56.002;37.208;2023-04-06T02:45:35;99810.98;;;1.62;85.74
75549;BME280;64133;56.002;37.208;2023-04-06T02:50:39;99808.24;;;1.65;85.82
75549;BME280;64133;56.002;37.208;2023-04-06T02:55:44;99807.12;;;1.61;85.69
75549;BME280;64133;56.002;37.208;2023-04-06T03:00:49;99820.20;;;1.69;85.58
75549;BME280;64133;56.002;37.208;2023-04-06T03:05:53;99819.70;;;1.83;85.62
75549;BME280;64133;56.002;37.208;2023-04-06T03:10:58;99826.88;;;2.31;85.66
75549;BME280;64133;56.002;37.208;2023-04-06T03:16:06;99828.34;;;3.48;84.07
75549;BME280;64133;56.002;37.208;2023-04-06T03:21:11;99840.72;;;2.94;81.69
75549;BME280;64133;56.002;37.208;2023-04-06T03:26:16;99840.32;;;3.03;82.25
75549;BME280;64133;56.002;37.208;2023-04-06T03:31:21;99843.91;;;2.90;81.59
75549;BME280;64133;56.002;37.208;2023-04-06T03:36:25;99852.41;;;3.24;82.15
75549;BME280;64133;56.002;37.208;2023-04-06T03:41:30;99855.48;;;7.25;76.29
75549;BME280;64133;56.002;37.208;2023-04-06T03:46:35;99852.40;;;7.47;70.03
75549;BME280;64133;56.002;37.208;2023-04-06T03:51:40;99851.13;;;9.97;66.24
75549;BME280;64133;56.002;37.208;2023-04-06T03:56:44;99853.52;;;12.95;60.32
75549;BME280;64133;56.002;37.208;2023-04-06T04:01:49;99858.91;;;14.31;52.49
75549;BME280;64133;56.002;37.208;2023-04-06T04:06:54;99844.97;;;16.18;48.32
75549;BME280;64133;56.002;37.208;2023-04-06T04:11:59;99865.08;;;17.06;46.88
75549;BME280;64133;56.002;37.208;2023-04-06T04:17:04;99867.59;;;17.55;42.62
75549;BME280;64133;56.002;37.208;2023-04-06T04:22:08;99877.06;;;16.70;44.19
75549;BME280;64133;56.002;37.208;2023-04-06T04:27:13;99870.69;;;18.07;41.79
75549;BME280;64133;56.002;37.208;2023-04-06T04:32:18;99876.11;;;18.44;40.68
75549;BME280;64133;56.002;37.208;2023-04-06T04:37:23;99878.11;;;18.38;40.35
75549;BME280;64133;56.002;37.208;2023-04-06T04:42:28;99877.22;;;21.19;37.11
75549;BME280;64133;56.002;37.208;2023-04-06T04:47:32;99885.53;;;19.97;34.56
75549;BME280;64133;56.002;37.208;2023-04-06T04:52:37;99886.44;;;18.39;39.13
75549;BME280;64133;56.002;37.208;2023-04-06T04:57:42;99890.09;;;19.80;36.38
75549;BME280;64133;56.002;37.208;2023-04-06T05:02:47;99887.06;;;20.27;34.92
75549;BME280;64133;56.002;37.208;2023-04-06T05:07:52;99894.63;;;20.54;32.90
75549;BME280;64133;56.002;37.208;2023-04-06T05:12:57;99892.38;;;20.89;34.75
75549;BME280;64133;56.002;37.208;2023-04-06T05:18:01;99888.54;;;21.48;30.65
75549;BME280;64133;56.002;37.208;2023-04-06T05:23:06;99887.63;;;22.62;30.55
75549;BME280;64133;56.002;37.208;2023-04-06T05:28:11;99899.08;;;20.66;32.23
75549;BME280;64133;56.002;37.208;2023-04-06T05:33:17;99891.58;;;22.45;31.01
75549;BME280;64133;56.002;37.208;2023-04-06T05:38:22;99891.06;;;27.47;25.71
75549;BME280;64133;56.002;37.208;2023-04-06T05:43:26;99899.53;;;26.02;25.30
75549;BME280;64133;56.002;37.208;2023-04-06T05:48:32;99892.47;;;26.68;25.40
75549;BME280;64133;56.002;37.208;2023-04-06T05:53:36;99893.59;;;29.03;22.60
75549;BME280;64133;56.002;37.208;2023-04-06T05:58:41;99897.72;;;28.85;22.21
75549;BME280;64133;56.002;37.208;2023-04-06T06:03:46;99897.14;;;29.72;21.26
75549;BME280;64133;56.002;37.208;2023-04-06T06:08:51;99906.36;;;28.94;22.24
75549;BME280;64133;56.002;37.208;2023-04-06T06:13:56;99904.94;;;31.93;19.69
75549;BME280;64133;56.002;37.208;2023-04-06T06:19:01;99904.57;;;30.26;19.11
75549;BME280;64133;56.002;37.208;2023-04-06T06:24:06;99902.46;;;31.52;18.74
75549;BME280;64133;56.002;37.208;2023-04-06T06:29:11;99906.30;;;30.06;19.53
75549;BME280;64133;56.002;37.208;2023-04-06T06:34:16;99909.56;;;31.37;18.87
75549;BME280;64133;56.002;37.208;2023-04-06T06:39:21;99907.31;;;30.43;18.66
75549;BME280;64133;56.002;37.208;2023-04-06T06:44:25;99912.07;;;28.95;19.83
75549;BME280;64133;56.002;37.208;2023-04-06T06:49:30;99900.83;;;32.59;16.96
75549;BME280;64133;56.002;37.208;2023-04-06T06:54:35;99899.09;;;33.41;16.10
75549;BME280;64133;56.002;37.208;2023-04-06T06:59:39;99898.12;;;32.15;16.62
75549;BME280;64133;56.002;37.208;2023-04-06T07:04:47;99900.34;;;31.57;17.14
75549;BME280;64133;56.002;37.208;2023-04-06T07:09:49;99893.34;;;33.03;15.98
75549;BME280;64133;56.002;37.208;2023-04-06T07:14:55;99900.56;;;32.60;16.15
75549;BME280;64133;56.002;37.208;2023-04-06T07:20:02;99896.69;;;32.53;15.70
75549;BME280;64133;56.002;37.208;2023-04-06T07:25:08;99887.33;;;33.81;15.00
75549;BME280;64133;56.002;37.208;2023-04-06T07:30:14;99888.83;;;33.21;15.14
75549;BME280;64133;56.002;37.208;2023-04-06T07:35:19;99889.30;;;33.95;14.36
75549;BME280;64133;56.002;37.208;2023-04-06T07:40:24;99896.44;;;30.02;16.76
75549;BME280;64133;56.002;37.208;2023-04-06T07:45:29;99882.52;;;33.13;14.08
75549;BME280;64133;56.002;37.208;2023-04-06T07:50:33;99882.45;;;30.51;16.22
75549;BME280;64133;56.002;37.208;2023-04-06T07:55:38;99889.45;;;31.07;15.90
75549;BME280;64133;56.002;37.208;2023-04-06T08:00:43;99889.56;;;34.64;13.68
75549;BME280;64133;56.002;37.208;2023-04-06T08:05:48;99894.23;;;29.41;15.77
75549;BME280;64133;56.002;37.208;2023-04-06T08:10:53;99889.08;;;30.84;15.74
75549;BME280;64133;56.002;37.208;2023-04-06T08:15:58;99883.41;;;31.36;14.51
75549;BME280;64133;56.002;37.208;2023-04-06T08:21:02;99874.34;;;30.99;15.25
75549;BME280;64133;56.002;37.208;2023-04-06T08:26:07;99871.13;;;31.52;14.40
75549;BME280;64133;56.002;37.208;2023-04-06T08:31:11;99870.75;;;31.46;14.56
75549;BME280;64133;56.002;37.208;2023-04-06T08:36:16;99869.53;;;27.96;16.86
75549;BME280;64133;56.002;37.208;2023-04-06T08:41:21;99868.59;;;31.29;14.16
75549;BME280;64133;56.002;37.208;2023-04-06T08:46:26;99857.97;;;27.45;16.32
75549;BME280;64133;56.002;37.208;2023-04-06T08:51:31;99855.18;;;26.93;16.85
75549;BME280;64133;56.002;37.208;2023-04-06T08:56:37;99858.41;;;20.08;23.65
75549;BME280;64133;56.002;37.208;2023-04-06T09:01:42;99854.32;;;19.05;25.60
75549;BME280;64133;56.002;37.208;2023-04-06T09:06:46;99856.58;;;17.84;27.63
75549;BME280;64133;56.002;37.208;2023-04-06T09:11:51;99865.90;;;17.50;28.67
75549;BME280;64133;56.002;37.208;2023-04-06T09:16:56;99857.92;;;16.84;29.34
75549;BME280;64133;56.002;37.208;2023-04-06T09:22:05;99853.66;;;16.56;30.21
75549;BME280;64133;56.002;37.208;2023-04-06T09:27:09;99840.39;;;16.11;31.27
75549;BME280;64133;56.002;37.208;2023-04-06T09:32:14;99833.64;;;16.48;31.54
75549;BME280;64133;56.002;37.208;2023-04-06T09:37:19;99842.13;;;17.05;30.15
75549;BME280;64133;56.002;37.208;2023-04-06T09:42:27;99827.00;;;17.36;30.54
75549;BME280;64133;56.002;37.208;2023-04-06T09:47:32;99823.75;;;16.94;30.53
75549;BME280;64133;56.002;37.208;2023-04-06T09:52:40;99825.99;;;16.49;30.34
75549;BME280;64133;56.002;37.208;2023-04-06T09:57:45;99831.84;;;16.88;29.50
75549;BME280;64133;56.002;37.208;2023-04-06T10:02:53;99828.01;;;17.08;29.14
75549;BME280;64133;56.002;37.208;2023-04-06T10:07:57;99839.27;;;16.98;29.34
75549;BME280;64133;56.002;37.208;2023-04-06T10:13:01;99827.34;;;17.11;29.37
75549;BME280;64133;56.002;37.208;2023-04-06T10:18:06;99820.62;;;18.76;27.29
75549;BME280;64133;56.002;37.208;2023-04-06T10:23:12;99817.16;;;20.57;25.44
75549;BME280;64133;56.002;37.208;2023-04-06T10:28:18;99819.48;;;21.65;23.94
75549;BME280;64133;56.002;37.208;2023-04-06T10:33:22;99838.59;;;21.32;23.98
75549;BME280;64133;56.002;37.208;2023-04-06T10:38:38;99818.10;;;21.21;24.30
75549;BME280;64133;56.002;37.208;2023-04-06T10:43:40;99814.41;;;22.21;23.32
75549;BME280;64133;56.002;37.208;2023-04-06T10:48:45;99816.44;;;22.19;23.37
75549;BME280;64133;56.002;37.208;2023-04-06T10:53:49;99811.13;;;23.01;22.60
75549;BME280;64133;56.002;37.208;2023-04-06T10:58:54;99812.06;;;22.07;22.45
75549;BME280;64133;56.002;37.208;2023-04-06T11:04:01;99804.80;;;22.76;22.43
75549;BME280;64133;56.002;37.208;2023-04-06T11:09:06;99817.86;;;17.68;26.70
75549;BME280;64133;56.002;37.208;2023-04-06T11:14:10;99821.82;;;17.30;28.09
75549;BME280;64133;56.002;37.208;2023-04-06T11:19:15;99820.88;;;16.51;29.30
75549;BME280;64133;56.002;37.208;2023-04-06T11:24:20;99816.31;;;17.62;27.81
75549;BME280;64133;56.002;37.208;2023-04-06T11:29:25;99806.34;;;18.06;27.34
75549;BME280;64133;56.002;37.208;2023-04-06T11:34:30;99808.42;;;18.61;26.64
75549;BME280;64133;56.002;37.208;2023-04-06T11:39:38;99804.24;;;18.67;26.47
75549;BME280;64133;56.002;37.208;2023-04-06T11:44:43;99804.64;;;19.52;25.72
75549;BME280;64133;56.002;37.208;2023-04-06T11:49:48;99809.14;;;19.55;24.75
75549;BME280;64133;56.002;37.208;2023-04-06T11:54:53;99794.84;;;16.99;28.31
75549;BME280;64133;56.002;37.208;2023-04-06T11:59:57;99801.54;;;16.81;28.89
75549;BME280;64133;56.002;37.208;2023-04-06T12:05:02;99803.63;;;16.73;28.98
75549;BME280;64133;56.002;37.208;2023-04-06T12:10:08;99798.52;;;16.80;28.38
75549;BME280;64133;56.002;37.208;2023-04-06T12:15:13;99790.19;;;15.90;30.00
75549;BME280;64133;56.002;37.208;2023-04-06T12:20:18;99788.27;;;14.74;31.26
75549;BME280;64133;56.002;37.208;2023-04-06T12:25:23;99784.16;;;14.47;32.47
75549;BME280;64133;56.002;37.208;2023-04-06T12:30:28;99786.02;;;14.79;32.02
75549;BME280;64133;56.002;37.208;2023-04-06T12:35:36;99774.23;;;14.78;32.72
75549;BME280;64133;56.002;37.208;2023-04-06T12:40:40;99785.75;;;14.44;32.64
75549;BME280;64133;56.002;37.208;2023-04-06T12:45:44;99778.45;;;14.42;32.96
75549;BME280;64133;56.002;37.208;2023-04-06T12:50:56;99780.13;;;14.52;33.04
75549;BME280;64133;56.002;37.208;2023-04-06T12:56:01;99775.36;;;14.27;33.73
75549;BME280;64133;56.002;37.208;2023-04-06T13:01:06;99764.27;;;14.47;33.27
75549;BME280;64133;56.002;37.208;2023-04-06T13:06:11;99776.75;;;14.21;33.72
75549;BME280;64133;56.002;37.208;2023-04-06T13:11:16;99772.89;;;13.91;33.61
75549;BME280;64133;56.002;37.208;2023-04-06T13:16:21;99764.94;;;13.81;33.97
75549;BME280;64133;56.002;37.208;2023-04-06T13:21:25;99758.33;;;13.91;33.95
75549;BME280;64133;56.002;37.208;2023-04-06T13:26:30;99763.12;;;13.81;33.65
75549;BME280;64133;56.002;37.208;2023-04-06T13:31:35;99757.81;;;13.72;33.79
75549;BME280;64133;56.002;37.208;2023-04-06T13:36:40;99762.75;;;13.46;33.57
75549;BME280;64133;56.002;37.208;2023-04-06T13:41:46;99761.21;;;13.68;33.33
75549;BME280;64133;56.002;37.208;2023-04-06T13:46:51;99759.61;;;13.31;33.20
75549;BME280;64133;56.002;37.208;2023-04-06T13:51:56;99752.36;;;13.18;33.10
75549;BME280;64133;56.002;37.208;2023-04-06T13:57:00;99763.34;;;13.13;32.92
75549;BME280;64133;56.002;37.208;2023-04-06T14:02:07;99753.11;;;12.99;32.95
75549;BME280;64133;56.002;37.208;2023-04-06T14:07:10;99752.88;;;12.96;32.87
75549;BME280;64133;56.002;37.208;2023-04-06T14:12:14;99748.91;;;12.81;32.64
75549;BME280;64133;56.002;37.208;2023-04-06T14:17:19;99757.92;;;12.99;32.80
75549;BME280;64133;56.002;37.208;2023-04-06T14:22:24;99757.59;;;12.93;32.49
75549;BME280;64133;56.002;37.208;2023-04-06T14:27:28;99757.78;;;12.65;33.08
75549;BME280;64133;56.002;37.208;2023-04-06T14:32:33;99765.45;;;12.47;33.54
75549;BME280;64133;56.002;37.208;2023-04-06T14:37:40;99758.05;;;12.41;33.86
75549;BME280;64133;56.002;37.208;2023-04-06T14:42:42;99762.70;;;12.16;34.45
75549;BME280;64133;56.002;37.208;2023-04-06T14:47:47;99760.66;;;12.20;34.78
75549;BME280;64133;56.002;37.208;2023-04-06T14:52:51;99762.64;;;12.27;34.20
75549;BME280;64133;56.002;37.208;2023-04-06T14:57:56;99765.37;;;12.05;34.33
75549;BME280;64133;56.002;37.208;2023-04-06T15:03:01;99766.50;;;11.91;34.32
75549;BME280;64133;56.002;37.208;2023-04-06T15:08:06;99768.91;;;11.77;34.37
75549;BME280;64133;56.002;37.208;2023-04-06T15:13:10;99764.48;;;11.61;34.61
75549;BME280;64133;56.002;37.208;2023-04-06T15:18:15;99764.52;;;11.50;34.64
75549;BME280;64133;56.002;37.208;2023-04-06T15:23:20;99765.84;;;11.39;34.74
75549;BME280;64133;56.002;37.208;2023-04-06T15:28:24;99776.86;;;11.27;34.79
75549;BME280;64133;56.002;37.208;2023-04-06T15:33:29;99786.33;;;11.18;34.94
75549;BME280;64133;56.002;37.208;2023-04-06T15:38:34;99789.33;;;11.02;35.11
75549;BME280;64133;56.002;37.208;2023-04-06T15:43:38;99794.92;;;10.92;35.17
75549;BME280;64133;56.002;37.208;2023-04-06T15:48:43;99793.59;;;10.75;35.33
75549;BME280;64133;56.002;37.208;2023-04-06T15:59:02;99795.21;;;10.54;35.48
75549;BME280;64133;56.002;37.208;2023-04-06T16:04:07;99801.81;;;10.30;35.53
75549;BME280;64133;56.002;37.208;2023-04-06T16:09:13;99805.02;;;10.10;35.73
75549;BME280;64133;56.002;37.208;2023-04-06T16:14:18;99810.42;;;9.90;36.04
75549;BME280;64133;56.002;37.208;2023-04-06T16:19:22;99814.53;;;9.75;35.98
75549;BME280;64133;56.002;37.208;2023-04-06T16:24:27;99829.23;;;9.60;36.21
75549;BME280;64133;56.002;37.208;2023-04-06T16:29:33;99826.46;;;9.43;36.42
75549;BME280;64133;56.002;37.208;2023-04-06T16:34:36;99836.75;;;9.27;36.69
75549;BME280;64133;56.002;37.208;2023-04-06T16:39:41;99839.97;;;9.18;36.88
75549;BME280;64133;56.002;37.208;2023-04-06T16:44:46;99846.30;;;9.03;37.30
75549;BME280;64133;56.002;37.208;2023-04-06T16:49:52;99850.70;;;8.90;37.61
75549;BME280;64133;56.002;37.208;2023-04-06T16:54:56;99856.20;;;8.79;37.79
75549;BME280;64133;56.002;37.208;2023-04-06T17:00:01;99858.41;;;8.66;38.15
75549;BME280;64133;56.002;37.208;2023-04-06T17:05:07;99861.11;;;8.51;38.48
75549;BME280;64133;56.002;37.208;2023-04-06T17:10:12;99862.38;;;8.39;38.72
75549;BME280;64133;56.002;37.208;2023-04-06T17:15:17;99877.02;;;8.28;39.09
75549;BME280;64133;56.002;37.208;2023-04-06T17:20:21;99882.67;;;8.15;39.26
75549;BME280;64133;56.002;37.208;2023-04-06T17:25:26;99888.40;;;8.00;39.55
75549;BME280;64133;56.002;37.208;2023-04-06T17:30:31;99891.89;;;7.87;39.68
75549;BME280;64133;56.002;37.208;2023-04-06T17:35:36;99890.97;;;7.73;40.08
75549;BME280;64133;56.002;37.208;2023-04-06T17:40:42;99894.63;;;7.64;40.11
75549;BME280;64133;56.002;37.208;2023-04-06T17:45:49;99895.67;;;7.54;40.34
75549;BME280;64133;56.002;37.208;2023-04-06T17:50:54;99903.52;;;7.47;40.39
75549;BME280;64133;56.002;37.208;2023-04-06T17:56:01;99908.55;;;7.36;40.35
75549;BME280;64133;56.002;37.208;2023-04-06T18:01:07;99909.30;;;7.23;40.20
75549;BME280;64133;56.002;37.208;2023-04-06T18:06:13;99915.46;;;7.15;39.98
75549;BME280;64133;56.002;37.208;2023-04-06T18:11:17;99917.19;;;7.00;39.98
75549;BME280;64133;56.002;37.208;2023-04-06T18:16:22;99915.57;;;6.91;40.04
75549;BME280;64133;56.002;37.208;2023-04-06T18:21:26;99922.91;;;6.77;40.10
75549;BME280;64133;56.002;37.208;2023-04-06T18:26:31;99932.30;;;6.65;40.11
75549;BME280;64133;56.002;37.208;2023-04-06T18:31:35;99931.45;;;6.58;40.16
75549;BME280;64133;56.002;37.208;2023-04-06T18:36:40;99932.97;;;6.46;40.17
75549;BME280;64133;56.002;37.208;2023-04-06T18:41:45;99937.20;;;6.33;40.39
75549;BME280;64133;56.002;37.208;2023-04-06T18:46:50;99935.81;;;6.18;40.70
75549;BME280;64133;56.002;37.208;2023-04-06T18:51:55;99938.06;;;6.09;40.90
75549;BME280;64133;56.002;37.208;2023-04-06T18:57:00;99945.66;;;5.97;41.07
75549;BME280;64133;56.002;37.208;2023-04-06T19:02:05;99945.50;;;5.92;40.98
75549;BME280;64133;56.002;37.208;2023-04-06T19:07:09;99952.96;;;5.82;41.12
75549;BME280;64133;56.002;37.208;2023-04-06T19:12:14;99943.55;;;5.71;41.16
75549;BME280;64133;56.002;37.208;2023-04-06T19:17:18;99946.71;;;5.60;41.22
75549;BME280;64133;56.002;37.208;2023-04-06T19:22:23;99949.80;;;5.51;41.21
75549;BME280;64133;56.002;37.208;2023-04-06T19:27:28;99951.21;;;5.41;41.26
75549;BME280;64133;56.002;37.208;2023-04-06T19:32:32;99947.36;;;5.30;41.57
75549;BME280;64133;56.002;37.208;2023-04-06T19:37:37;99948.43;;;5.26;41.54
75549;BME280;64133;56.002;37.208;2023-04-06T19:42:42;99953.89;;;5.13;41.76
75549;BME280;64133;56.002;37.208;2023-04-06T19:47:46;99958.13;;;5.07;41.90
75549;BME280;64133;56.002;37.208;2023-04-06T19:52:51;99954.58;;;4.99;42.04
75549;BME280;64133;56.002;37.208;2023-04-06T19:57:56;99956.95;;;4.87;42.15
75549;BME280;64133;56.002;37.208;2023-04-06T20:03:01;99944.81;;;4.77;42.38
75549;BME280;64133;56.002;37.208;2023-04-06T20:08:06;99953.25;;;4.73;42.53
75549;BME280;64133;56.002;37.208;2023-04-06T20:13:10;99956.52;;;4.60;42.84
75549;BME280;64133;56.002;37.208;2023-04-06T20:18:15;99958.65;;;4.51;43.05
75549;BME280;64133;56.002;37.208;2023-04-06T20:23:20;99955.03;;;4.45;43.28
75549;BME280;64133;56.002;37.208;2023-04-06T20:28:24;99955.77;;;4.39;43.52
75549;BME280;64133;56.002;37.208;2023-04-06T20:33:29;99950.61;;;4.28;43.73
75549;BME280;64133;56.002;37.208;2023-04-06T20:38:33;99956.04;;;4.24;44.01
75549;BME280;64133;56.002;37.208;2023-04-06T20:43:40;99964.20;;;4.16;44.18
75549;BME280;64133;56.002;37.208;2023-04-06T20:48:45;99957.66;;;4.08;44.38
75549;BME280;64133;56.002;37.208;2023-04-06T20:53:50;99963.75;;;3.98;44.74
75549;BME280;64133;56.002;37.208;2023-04-06T20:58:56;99959.05;;;3.96;44.81
75549;BME280;64133;56.002;37.208;2023-04-06T21:04:01;99961.81;;;3.83;45.23
75549;BME280;64133;56.002;37.208;2023-04-06T21:09:05;99958.45;;;3.81;45.38
75549;BME280;64133;56.002;37.208;2023-04-06T21:14:10;99961.26;;;3.76;45.51
75549;BME280;64133;56.002;37.208;2023-04-06T21:19:15;99959.91;;;3.67;45.78
75549;BME280;64133;56.002;37.208;2023-04-06T21:24:19;99965.31;;;3.63;46.00
75549;BME280;64133;56.002;37.208;2023-04-06T21:29:24;99971.39;;;3.53;46.31
75549;BME280;64133;56.002;37.208;2023-04-06T21:34:29;99971.52;;;3.50;46.39
75549;BME280;64133;56.002;37.208;2023-04-06T21:39:36;99971.91;;;3.41;46.61
75549;BME280;64133;56.002;37.208;2023-04-06T21:44:40;99965.98;;;3.37;46.64
75549;BME280;64133;56.002;37.208;2023-04-06T21:49:45;99962.13;;;3.25;47.21
75549;BME280;64133;56.002;37.208;2023-04-06T21:54:50;99968.45;;;3.20;47.55
75549;BME280;64133;56.002;37.208;2023-04-06T21:59:54;99962.59;;;3.15;47.65
75549;BME280;64133;56.002;37.208;2023-04-06T22:04:59;99968.57;;;3.07;47.92
75549;BME280;64133;56.002;37.208;2023-04-06T22:10:04;99963.09;;;3.02;48.17
75549;BME280;64133;56.002;37.208;2023-04-06T22:15:11;99957.17;;;2.99;48.37
75549;BME280;64133;56.002;37.208;2023-04-06T22:20:16;99964.89;;;2.90;48.66
75549;BME280;64133;56.002;37.208;2023-04-06T22:25:20;99962.37;;;2.89;48.77
75549;BME280;64133;56.002;37.208;2023-04-06T22:30:25;99964.36;;;2.82;49.10
75549;BME280;64133;56.002;37.208;2023-04-06T22:35:30;99964.43;;;2.81;49.26
75549;BME280;64133;56.002;37.208;2023-04-06T22:40:34;99965.11;;;2.74;49.62
75549;BME280;64133;56.002;37.208;2023-04-06T22:45:39;99955.05;;;2.66;49.72
75549;BME280;64133;56.002;37.208;2023-04-06T22:50:44;99959.70;;;2.58;50.14
75549;BME280;64133;56.002;37.208;2023-04-06T22:55:48;99965.19;;;2.50;50.47
75549;BME280;64133;56.002;37.208;2023-04-06T23:00:53;99957.41;;;2.39;50.92
75549;BME280;64133;56.002;37.208;2023-04-06T23:05:57;99960.26;;;2.33;51.28
75549;BME280;64133;56.002;37.208;2023-04-06T23:11:02;99967.11;;;2.23;51.58
75549;BME280;64133;56.002;37.208;2023-04-06T23:16:08;99963.95;;;2.15;51.85
75549;BME280;64133;56.002;37.208;2023-04-06T23:21:12;99968.80;;;2.13;52.10
75549;BME280;64133;56.002;37.208;2023-04-06T23:26:17;99966.27;;;2.11;52.10
75549;BME280;64133;56.002;37.208;2023-04-06T23:31:22;99958.72;;;2.05;52.17
75549;BME280;64133;56.002;37.208;2023-04-06T23:36:26;99960.51;;;2.03;52.29
75549;BME280;64133;56.002;37.208;2023-04-06T23:41:31;99958.02;;;2.00;52.41
75549;BME280;64133;56.002;37.208;2023-04-06T23:46:36;99951.83;;;1.92;52.62
75549;BME280;64133;56.002;37.208;2023-04-06T23:51:40;99952.03;;;1.86;52.91
75549;BME280;64133;56.002;37.208;2023-04-06T23:56:45;99944.97;;;1.78;53.19
